Main page
Satellite images Climate Cyclones Lightning AirportsFAQ Languages Contact Newsletter About
Weather : Europe Africa North America South America Asia Australia-Oceania Others

pattaya-th, Pattaya-Rayong, U-Tapao International Airport

48477

latitude: , longitude: Thailand, elevation: 12-38N m


METAR: VTBU 240530Z 25004KT 9999 FEW020CB SCT100 28/22 Q1010 NOSIG